Hlavní strana
METAR-TAF:

METAR-TAF

Letiště :

Ulukhaktok, Severozápadní teritoria, Kanada

zeměpisná šířka: 70-46N, zeměpisná délka: 117-48W, výška: 36 m

Aktuální stav počasí

Zpráva byla vytvořena před 44 minutami, v 21:18 UTC
Západojihozápadní vítr 10 kt
Teplota -19°C
Vlhkost vzduchu 77%
Tlak 1012 hPa
Viditelnost: 1.6 km
Zataženo ve výšce 3500 ft
slabé sněžení, kouřmo

METAR: CYHI 212118Z 24010KT 1SM -SN BR OVC035 M19/M22 A2989 RMK SN7SC1 SLP130

Čas: 15:02 (22:02 UTC)

Předpověď počasí

Zpráva byla vytvořena před 56 minutami, v 21:06 UTC
Předpověď platná od 21 v 21 UTC do 22 v 01 UTC
Západojihozápadní vítr 10 kt
Viditelnost: 1.6 km
ve výšce 1500 ft
slabé sněžení, kouřmo
Dočasný
od 21 v 21 UTC do 22 v 01 UTC
Viditelnost: 4.8 km
Polojasno ve výšce 1500 ft
Zataženo ve výšce 5000 ft
slabé sněžení

TAF: CYHI 212106Z 2121/2201 25010KT 1SM -SN BR VV015 TEMPO 2121/2201 3SM -SN SCT015 OVC050 RMK NXT FCST WILL BE ISSUED AT 221645Z

Stav a předpovědi počasí z více než 4 000 letišť (zprávy METAR a TAF).

Červené a žluté tečky na mapě představují dostupné meteorologické stanice.

Když kurzor umístíte na tečku, zobrazí se název stanice.

Pak kliknutím zobrazíte stav a předpověď počasí.

Chcete-li změnit mapu, kliknutím na zelené tlačítko se znaménkem +mapu přiblížíte, kliknutím na zelené tlačítko se znaménkem – mapu oddálíte a kliknutím na zelené šipky přejdete na sousední mapy.


METAR-TAF: